Webster, Texas
Current Conditions -  °F | °C
As of 1:50 PM on Monday 22 Dec 2014 (Local Time) from KEFD Reporting Station
Broken Clouds Broken Clouds  
Wind Chill: 73°   Ceiling: 25000
Heat Index: 73°   Visibility: 7mi
Dew Point: 63°   Wind: 15mph
Humidity: 69%   Direction: 230°SW
Pressure: 29.66"   Gusts: NA
Location:  29.54°N, 95.12°W
Report Text: KEFD 221950Z 23013KT 7SM FEW020 BKN250 23/17 A2966
Loading
Personal Weather Stations






























Interactive Weather Map New forecast layout! Learn more

10-Day Weather Forecast

Advertisements
Track Severe Weather on mobile